Balen, Belgium
Current Conditions -  °F | °C
As of 9:25 PM on Tuesday 21 Oct 2014 (Local Time) from EBDT Reporting Station
Broken Clouds Broken Clouds  
Wind Chill: 41°   Ceiling: 4800
Heat Index: 46°   Visibility: 6mi
Dew Point: 43°   Wind: 12mph
Humidity: 87%   Direction: 260°W
Pressure: 29.77"   Gusts: NA
Location:  51.17°N, 5.17°E
Report Text: EBDT 211925Z AUTO 26010KT 9999 FEW029/// BKN048/// BKN070/// 08/06 Q1008 BLU
Loading
Personal Weather Stations






























Interactive Weather Map
Tropical Storm Tracking
New forecast layout! Learn more

10-Day Weather Forecast

Advertisements
Track Severe Weather on mobile